Flight Track Log - Related Links

Times and Time Zones

All times are in EDT time to prevent confusion due to time zone crossing. See the KAP550 flight status page for this flight to view local times or setup timezone preferences in your user account.


Time Position Orientation Groundspeed Altitude Reporting Facility
EDT Latitude Longitude Course Direction KTS MPH feet Rate Location/Type
Wed 05:25:03 PM 44.5644 -74.6808 160° South 150 173 4,700  Level Boston Center
Wed 05:26:15 PM 44.5214 -74.6558 158° South 140 161 5,000 273 Climbing Boston Center
Wed 05:27:15 PM 44.4906 -74.6256 145° Southeast 140 161 5,300 273 Climbing Boston Center
Wed 05:28:27 PM 44.4517 -74.5950 151° Southeast 140 161 5,600 125 Climbing Boston Center
Wed 05:29:39 PM 44.4144 -74.5792 163° South 135 155 5,600  Level Boston Center
Wed 05:30:00 PM 44.7322 -74.7411 160° South  Level FlightAware Approximate
Wed 05:30:39 PM 44.3689 -74.5542 159° South 135 155 5,600  Level Boston Center
Wed 05:31:39 PM 44.3297 -74.5356 161° South 135 155 5,600  Level Boston Center
Wed 05:32:39 PM 44.2947 -74.5197 162° South 140 161 5,600  Level Boston Center
Wed 05:33:39 PM 44.2575 -74.5039 163° South 145 167 5,600  Level Boston Center
Wed 05:34:39 PM 44.2244 -74.4883 161° South 145 167 5,600  Level Boston Center
Wed 05:35:39 PM 44.1872 -74.4697 160° South 145 167 5,600  Level Boston Center
Wed 05:36:39 PM 44.1500 -74.4511 160° South 145 167 5,600  Level Boston Center
Wed 05:37:51 PM 44.1067 -74.4322 163° South 150 173 5,600  Level Boston Center
Wed 05:38:51 PM 44.0589 -74.4103 162° South 150 173 5,600  Level Boston Center
Wed 05:39:51 PM 44.0197 -74.3917 161° South 150 173 5,600  Level Boston Center
Wed 05:40:51 PM 43.9783 -74.3731 162° South 150 173 5,600  Level Boston Center
Wed 05:41:51 PM 43.9369 -74.3544 162° South 150 173 5,600  Level Boston Center
Wed 05:42:51 PM 43.8978 -74.3331 159° South 150 173 5,600  Level Boston Center
Wed 05:43:51 PM 43.8606 -74.3175 163° South 150 173 5,600  Level Boston Center
Wed 05:44:51 PM 43.8192 -74.2989 162° South 150 173 5,600 150 Level Boston Center
Wed 05:45:51 PM 43.7778 -74.2803 162° South 150 173 5,900 500 Climbing Boston Center
Wed 05:46:51 PM 43.7467 -74.2650 160° South 139 160 6,600 350 Climbing Boston Center
Wed 05:47:51 PM 43.7158 -74.2469 157° South 127 146 6,600  Level Boston Center
Wed 05:48:51 PM 43.6764 -74.2228 156° South 132 152 6,600 -50 Level Boston Center
Wed 05:49:51 PM 43.6372 -74.2044 161° South 138 159 6,500 -150 Descending Boston Center
Wed 05:50:51 PM 43.5917 -74.1831 161° South 156 180 6,300 -250 Descending Boston Center
Wed 05:51:51 PM 43.5483 -74.1589 158° South 163 188 6,000 -396 Descending Boston Center
Wed 05:52:37 PM 43.5111 -74.1433 163° South 170 196 5,600 -353 Descending Boston Center
Wed 05:53:50 PM 43.4592 -74.1192 161° South 169 194 5,300 -269 Descending Boston Center
Wed 05:54:51 PM 43.4181 -74.0894 152° Southeast 168 193 5,000 -298 Descending Boston Center
Wed 05:55:51 PM 43.3789 -74.0628 154° Southeast 149 171 4,700 -300 Descending Boston Center
Wed 05:55:51 PM 43.3789 -74.0628 154° Southeast 163 188 4,700 -200 Level Boston Center
Wed 05:56:51 PM 43.3458 -74.0389 152° Southeast 151 174 4,500 -94 Descending Boston Center
Wed 05:57:59 PM 43.3044 -74.0092 152° Southeast 139 160 4,500  Level Boston Center
Wed 05:58:51 PM 43.2756 -73.9942 159° South 144 166 4,500  Level Boston Center
Wed 05:59:51 PM 43.2383 -73.9764 161° South 139 160 4,500  Level Boston Center
Wed 06:00:51 PM 43.2053 -73.9583 158° South 139 160 4,500  Level Boston Center
Wed 06:01:51 PM 43.1681 -73.9375 158° South 139 160 4,500 -100 Level Boston Center
Wed 06:02:51 PM 43.1328 -73.9194 160° South 139 160 4,300 -400 Descending Boston Center
Wed 06:03:51 PM 43.0850 -73.8983 162° South 152 175 3,700 -600 Descending Boston Center
Wed 06:04:51 PM 43.0478 -73.8778 158° South 159 183 3,100 -500 Descending Boston Center
Wed 06:05:51 PM 43.0003 -73.8539 160° South 164 189 2,700 -349 Descending Boston Center
Wed 06:07:00 PM 42.9531 -73.8451 172° South  Level FlightAware Approximate
Wed 06:08:00 PM 42.9131 -73.8178 172° South 157 181 2,000  Level Boston Center
Wed 06:09:00 PM 42.8736 -73.8142 176° South 148 170 2,000 -99 Level Boston Center
Wed 06:10:01 PM 42.8297 -73.8131 179° South 149 171 1,800 -492 Descending Boston Center
Wed 06:11:02 PM 42.7922 -73.8094 176° South 127 146 1,000 -694 Descending Boston Center
Wed 06:12:02 PM 42.7589 -73.8058 175° South 116 133 400 -600 Descending Boston Center
Wed 06:14:00 PM 42.7491 -73.8020 170° South  Level Estimated
Wed 06:21:00 PM 42.7491 -73.8020 170° South  Level Estimated
Wed 06:22:00 PM 42.7491 -73.8020 170° South  Level Estimated

Login

Don't have an account? Register now (free) for customized features, flight alerts, and more!